createdAt,value
2023-02-18T00:00:23.635Z,17.68
2023-02-18T00:02:52.533Z,17.41
2023-02-18T00:05:19.458Z,17.22
2023-02-18T00:07:46.052Z,17.96
2023-02-18T00:10:15.415Z,17.98
2023-02-18T00:12:42.490Z,18.17
2023-02-18T00:15:09.734Z,17.89
2023-02-18T00:17:36.704Z,17.78
2023-02-18T00:20:04.880Z,17.56
2023-02-18T00:22:31.410Z,17.53
2023-02-18T00:24:57.949Z,17.89
2023-02-18T00:27:24.479Z,17.69
2023-02-18T00:29:51.123Z,17.44
2023-02-18T00:32:17.704Z,17.83
2023-02-18T00:34:44.228Z,17.67
2023-02-18T00:37:10.807Z,17.71
2023-02-18T00:39:37.358Z,17.86
2023-02-18T00:42:04.120Z,17.80
2023-02-18T00:44:30.637Z,17.84
2023-02-18T00:46:57.389Z,17.62
2023-02-18T00:49:24.021Z,17.79
2023-02-18T00:51:50.659Z,17.68
2023-02-18T00:54:17.250Z,17.30
2023-02-18T00:56:43.788Z,17.58
2023-02-18T00:59:10.363Z,16.61
2023-02-18T01:01:37.579Z,17.33
2023-02-18T01:04:04.326Z,17.54
2023-02-18T01:06:31.464Z,17.57
2023-02-18T01:08:58.093Z,17.59
2023-02-18T01:11:24.934Z,17.65
2023-02-18T01:13:52.078Z,17.93
2023-02-18T01:16:18.825Z,17.22
2023-02-18T01:18:46.477Z,17.24
2023-02-18T01:21:13.052Z,17.10
2023-02-18T01:23:41.263Z,17.37
2023-02-18T01:26:08.671Z,17.52
2023-02-18T01:28:37.608Z,17.49
2023-02-18T01:31:08.780Z,17.47
2023-02-18T01:33:36.209Z,17.33
2023-02-18T01:36:03.042Z,17.01
2023-02-18T01:38:29.654Z,17.06
2023-02-18T01:40:56.280Z,16.82
2023-02-18T01:43:23.453Z,17.18
2023-02-18T01:46:16.766Z,16.97
2023-02-18T01:48:57.334Z,17.23
2023-02-18T01:51:35.653Z,16.98
2023-02-18T01:54:09.372Z,17.38
2023-02-18T01:56:45.306Z,17.41
2023-02-18T01:59:16.393Z,17.30
2023-02-18T02:01:45.706Z,17.34
2023-02-18T02:04:12.936Z,17.08
2023-02-18T02:06:41.281Z,17.47
2023-02-18T02:09:11.395Z,17.73
2023-02-18T02:12:16.861Z,17.07
2023-02-18T02:15:18.487Z,17.45
2023-02-18T02:18:19.256Z,17.28
2023-02-18T02:21:04.446Z,17.24
2023-02-18T02:23:48.356Z,17.62
2023-02-18T02:26:30.127Z,17.73
2023-02-18T02:33:08.965Z,16.85
2023-02-18T02:35:44.831Z,17.39
2023-02-18T02:38:38.613Z,17.61
2023-02-18T02:41:12.854Z,17.57
2023-02-18T02:43:56.948Z,17.49
2023-02-18T02:46:34.421Z,17.12
2023-02-18T02:49:16.438Z,17.03
2023-02-18T02:51:52.380Z,17.23
2023-02-18T02:54:25.103Z,17.63
2023-02-18T02:57:29.057Z,17.21
2023-02-18T03:00:12.847Z,17.85
2023-02-18T03:03:25.859Z,17.58
2023-02-18T03:06:21.269Z,16.31
2023-02-18T03:09:10.354Z,17.01
2023-02-18T03:12:03.401Z,17.10
2023-02-18T03:14:56.748Z,17.12
2023-02-18T03:17:33.566Z,16.60
2023-02-18T03:20:17.660Z,17.23
2023-02-18T03:22:48.692Z,17.01
2023-02-18T03:25:17.013Z,17.46
2023-02-18T03:27:52.280Z,17.47
2023-02-18T03:30:43.579Z,17.18
2023-02-18T03:33:15.982Z,16.75
2023-02-18T03:35:45.266Z,17.21
2023-02-18T03:38:18.707Z,17.85
2023-02-18T03:40:45.600Z,17.73
2023-02-18T03:43:12.576Z,17.54
2023-02-18T03:45:39.368Z,17.40
2023-02-18T03:48:06.149Z,17.32
2023-02-18T03:50:32.696Z,16.87
2023-02-18T03:52:59.261Z,17.19
2023-02-18T03:55:26.952Z,17.51
2023-02-18T03:57:53.657Z,17.70
2023-02-18T04:00:20.602Z,17.65
2023-02-18T04:02:47.142Z,17.72
2023-02-18T04:05:13.709Z,17.15
2023-02-18T04:07:40.264Z,17.64
2023-02-18T04:10:08.390Z,17.27
2023-02-18T04:12:34.982Z,17.16
2023-02-18T04:15:01.510Z,17.09
2023-02-18T04:17:28.051Z,17.27
2023-02-18T04:19:54.600Z,17.54
2023-02-18T04:22:21.158Z,17.65
2023-02-18T04:24:47.682Z,17.16
2023-02-18T04:27:14.567Z,16.56
2023-02-18T04:29:41.324Z,17.05
2023-02-18T04:32:07.927Z,16.38
2023-02-18T04:34:34.559Z,17.12
2023-02-18T04:37:01.112Z,17.03
2023-02-18T04:39:27.640Z,17.55
2023-02-18T04:41:54.218Z,16.84
2023-02-18T04:44:20.757Z,17.57
2023-02-18T04:46:47.756Z,17.18
2023-02-18T04:49:14.312Z,17.51
2023-02-18T04:51:40.885Z,17.21
2023-02-18T04:54:07.395Z,17.21
2023-02-18T04:56:33.940Z,17.07
2023-02-18T04:59:00.468Z,16.90
2023-02-18T05:01:27.030Z,16.77
2023-02-18T05:03:53.637Z,17.13
2023-02-18T05:06:20.213Z,16.96
2023-02-18T05:08:46.739Z,17.27
2023-02-18T05:11:13.273Z,17.22
2023-02-18T05:13:39.872Z,16.63
2023-02-18T05:16:07.006Z,17.07
2023-02-18T05:18:33.788Z,17.05
2023-02-18T05:21:00.375Z,16.92
2023-02-18T05:23:27.265Z,16.42
2023-02-18T05:25:55.191Z,16.61
2023-02-18T05:28:22.287Z,16.55
2023-02-18T05:30:48.850Z,17.29
2023-02-18T05:33:15.466Z,16.83
2023-02-18T05:35:42.036Z,17.11
2023-02-18T05:38:08.667Z,16.49
2023-02-18T05:40:35.342Z,16.97
2023-02-18T05:43:01.857Z,16.27
2023-02-18T05:45:28.489Z,16.42
2023-02-18T05:47:55.014Z,16.95
2023-02-18T05:50:21.552Z,17.44
2023-02-18T05:52:48.239Z,17.61
2023-02-18T05:55:14.796Z,16.82
2023-02-18T05:57:41.707Z,16.75
2023-02-18T06:00:11.548Z,16.24
2023-02-18T06:02:38.226Z,16.64
2023-02-18T06:05:05.824Z,17.18
2023-02-18T06:07:32.352Z,16.96
2023-02-18T06:09:58.961Z,16.71
2023-02-18T06:12:25.629Z,16.50
2023-02-18T06:14:52.200Z,16.63
2023-02-18T06:17:18.850Z,16.58
2023-02-18T06:19:45.999Z,16.91
2023-02-18T06:22:12.742Z,16.92
2023-02-18T06:24:39.638Z,17.04
2023-02-18T06:27:06.631Z,16.65
2023-02-18T06:29:33.243Z,16.98
2023-02-18T06:32:00.024Z,17.02
2023-02-18T06:34:27.812Z,17.31
2023-02-18T06:36:54.365Z,16.29
2023-02-18T06:39:20.969Z,16.10
2023-02-18T06:41:47.556Z,16.49
2023-02-18T06:44:16.806Z,16.78
2023-02-18T06:46:44.012Z,16.45
2023-02-18T06:49:10.636Z,16.66
2023-02-18T06:51:37.252Z,16.26
2023-02-18T06:54:04.245Z,16.93
2023-02-18T06:56:31.088Z,16.60
2023-02-18T06:58:57.835Z,16.45
2023-02-18T07:01:24.396Z,16.82
2023-02-18T07:03:50.915Z,16.55
2023-02-18T07:06:17.538Z,16.51
2023-02-18T07:08:44.339Z,16.89
2023-02-18T07:11:10.926Z,16.56
2023-02-18T07:13:37.478Z,16.69
2023-02-18T07:16:04.201Z,16.98
2023-02-18T07:18:30.776Z,16.18
2023-02-18T07:20:57.367Z,16.60
2023-02-18T07:23:24.000Z,16.09
2023-02-18T07:25:50.504Z,16.70
2023-02-18T07:28:17.444Z,16.39
2023-02-18T07:30:43.969Z,17.02
2023-02-18T07:33:10.570Z,16.85
2023-02-18T07:35:37.093Z,16.22
2023-02-18T07:38:04.445Z,15.80
2023-02-18T07:40:31.050Z,16.36
2023-02-18T07:42:57.578Z,16.65
2023-02-18T07:45:24.280Z,16.33
2023-02-18T07:47:50.891Z,16.89
2023-02-18T07:50:17.553Z,16.03
2023-02-18T07:52:44.142Z,16.89
2023-02-18T07:55:10.702Z,17.37
2023-02-18T07:57:57.185Z,17.00
2023-02-18T08:00:24.618Z,16.72
2023-02-18T08:02:51.304Z,16.98
2023-02-18T08:05:17.902Z,16.51
2023-02-18T08:07:44.587Z,17.38
2023-02-18T08:10:11.419Z,17.01
2023-02-18T08:12:37.964Z,17.31
2023-02-18T08:15:04.803Z,16.92
2023-02-18T08:17:31.421Z,16.85
2023-02-18T08:19:57.959Z,17.46
2023-02-18T08:22:24.541Z,17.13
2023-02-18T08:24:51.141Z,16.52
2023-02-18T08:27:17.739Z,17.04
2023-02-18T08:29:44.267Z,16.88
2023-02-18T08:32:10.881Z,16.84
2023-02-18T08:34:37.595Z,17.60
2023-02-18T08:37:04.257Z,16.93
2023-02-18T08:39:39.775Z,17.94
2023-02-18T08:42:06.738Z,17.06
2023-02-18T08:44:33.358Z,16.97
2023-02-18T08:47:00.015Z,17.58
2023-02-18T08:49:26.586Z,18.58
2023-02-18T08:51:53.591Z,18.08
2023-02-18T08:54:20.238Z,17.17
2023-02-18T08:56:46.831Z,17.75
2023-02-18T08:59:13.372Z,16.57
2023-02-18T09:01:40.055Z,17.16
2023-02-18T09:04:06.694Z,16.88
2023-02-18T09:06:37.479Z,17.30
2023-02-18T09:09:04.079Z,16.85
2023-02-18T09:11:30.625Z,16.67
2023-02-18T09:13:57.191Z,17.43
2023-02-18T09:16:26.074Z,16.75
2023-02-18T09:18:53.994Z,16.94
2023-02-18T09:21:20.752Z,18.22
2023-02-18T09:23:47.648Z,17.60
2023-02-18T09:26:16.945Z,17.67
2023-02-18T09:28:43.990Z,17.60
2023-02-18T09:31:17.494Z,16.87
2023-02-18T09:33:50.651Z,18.04
2023-02-18T09:36:18.342Z,17.33
2023-02-18T09:38:45.271Z,17.23
2023-02-18T09:41:45.361Z,18.01
2023-02-18T09:44:15.961Z,17.41
2023-02-18T09:47:03.275Z,17.05
2023-02-18T09:49:34.401Z,17.08
2023-02-18T09:52:23.892Z,17.54
2023-02-18T09:54:51.976Z,17.72
2023-02-18T09:57:43.750Z,18.10
2023-02-18T10:00:19.592Z,18.71
2023-02-18T10:02:58.595Z,18.22
2023-02-18T10:05:29.345Z,17.84
2023-02-18T10:08:05.263Z,18.11
2023-02-18T10:10:42.949Z,18.90
2023-02-18T10:13:14.576Z,19.35
2023-02-18T10:15:43.122Z,19.08
2023-02-18T10:18:26.984Z,18.30
2023-02-18T10:21:00.918Z,18.77
2023-02-18T10:23:28.815Z,18.54
2023-02-18T10:25:57.131Z,18.66
2023-02-18T10:28:26.029Z,19.45
2023-02-18T10:31:11.325Z,19.41
2023-02-18T10:33:59.630Z,19.37
2023-02-18T10:36:40.885Z,20.45
2023-02-18T10:39:47.326Z,19.82
2023-02-18T10:42:35.827Z,19.21
2023-02-18T10:45:14.489Z,19.23
2023-02-18T10:48:07.206Z,19.60
2023-02-18T10:50:37.296Z,19.82
2023-02-18T10:53:12.698Z,20.70
2023-02-18T10:55:42.339Z,21.10
2023-02-18T10:58:47.469Z,20.28
2023-02-18T11:01:16.888Z,19.71
2023-02-18T11:03:52.281Z,19.14
2023-02-18T11:06:31.356Z,19.52
2023-02-18T11:08:58.658Z,19.73
2023-02-18T11:11:38.156Z,20.23
2023-02-18T11:14:07.775Z,21.18
2023-02-18T11:16:43.676Z,21.39
2023-02-18T11:19:34.173Z,20.97
2023-02-18T11:22:23.224Z,20.66
2023-02-18T11:24:55.998Z,20.06
2023-02-18T11:27:43.958Z,20.88
2023-02-18T11:30:30.522Z,21.78
2023-02-18T11:33:01.235Z,21.92
2023-02-18T11:35:32.124Z,22.80
2023-02-18T11:38:00.634Z,22.47
2023-02-18T11:40:33.685Z,22.18
2023-02-18T11:43:12.516Z,22.18
2023-02-18T11:45:39.399Z,22.01
2023-02-18T11:48:23.182Z,22.01
2023-02-18T11:50:53.974Z,22.24
2023-02-18T11:53:30.817Z,23.07
2023-02-18T11:56:03.104Z,22.80
2023-02-18T11:58:39.750Z,22.99
2023-02-18T12:01:28.125Z,23.54
2023-02-18T12:04:15.699Z,23.56
2023-02-18T12:07:10.074Z,23.09
2023-02-18T12:09:43.286Z,23.21
2023-02-18T12:12:30.230Z,22.11
2023-02-18T12:14:57.955Z,22.30
2023-02-18T12:17:39.281Z,22.41
2023-02-18T12:20:43.145Z,22.33
2023-02-18T12:23:25.655Z,23.53
2023-02-18T12:26:10.312Z,22.47
2023-02-18T12:28:57.894Z,21.85
2023-02-18T12:31:26.092Z,21.56
2023-02-18T12:34:27.596Z,21.02
2023-02-18T12:37:28.790Z,22.70
2023-02-18T12:40:05.507Z,22.74
2023-02-18T12:43:02.627Z,22.24
2023-02-18T12:45:53.917Z,22.49
2023-02-18T12:48:49.895Z,22.37
2023-02-18T12:51:28.242Z,21.06
2023-02-18T12:54:13.148Z,22.28
2023-02-18T12:56:54.523Z,21.21
2023-02-18T12:59:39.625Z,21.17
2023-02-18T13:02:36.816Z,21.39
2023-02-18T13:05:23.208Z,21.74
2023-02-18T13:07:55.736Z,22.24
2023-02-18T13:10:44.038Z,21.56
2023-02-18T13:13:20.952Z,20.74
2023-02-18T13:15:59.395Z,20.95
2023-02-18T13:18:33.636Z,20.78
2023-02-18T13:21:09.539Z,21.41
2023-02-18T13:23:59.929Z,21.50
2023-02-18T13:26:29.531Z,22.47
2023-02-18T13:29:07.874Z,21.47
2023-02-18T13:31:52.939Z,21.16
2023-02-18T13:34:29.084Z,20.91
2023-02-18T13:37:10.183Z,21.48
2023-02-18T13:39:37.845Z,21.06
2023-02-18T13:42:35.409Z,21.26
2023-02-18T13:45:26.328Z,21.11
2023-02-18T13:47:54.313Z,20.04
2023-02-18T13:50:26.876Z,19.74
2023-02-18T13:53:14.599Z,20.37
2023-02-18T13:55:59.664Z,19.36
2023-02-18T13:58:32.812Z,19.46
2023-02-18T14:01:06.967Z,19.09
2023-02-18T14:03:49.766Z,19.58
2023-02-18T14:06:33.395Z,19.51
2023-02-18T14:09:25.635Z,19.95
2023-02-18T14:11:57.719Z,19.43
2023-02-18T14:14:27.244Z,20.30
2023-02-18T14:17:12.686Z,20.11
2023-02-18T14:19:39.415Z,19.77
2023-02-18T14:22:26.563Z,18.66
2023-02-18T14:25:16.516Z,19.21
2023-02-18T14:27:43.756Z,18.77
2023-02-18T14:30:26.703Z,20.04
2023-02-18T14:32:57.320Z,18.78
2023-02-18T14:36:05.382Z,19.41
2023-02-18T14:39:09.079Z,20.02
2023-02-18T14:41:47.317Z,19.68
2023-02-18T14:44:43.428Z,18.97
2023-02-18T14:47:34.378Z,19.12
2023-02-18T14:50:04.977Z,18.64
2023-02-18T14:52:57.431Z,19.64
2023-02-18T14:55:25.986Z,19.20
2023-02-18T14:58:05.873Z,19.48
2023-02-18T15:00:40.938Z,19.70
2023-02-18T15:03:17.269Z,18.57
2023-02-18T15:05:45.968Z,18.71
2023-02-18T15:08:20.770Z,19.15
2023-02-18T15:10:53.102Z,19.00
2023-02-18T15:13:27.353Z,18.65
2023-02-18T15:15:57.773Z,19.48
2023-02-18T15:18:34.797Z,19.32
2023-02-18T15:21:02.951Z,19.64
2023-02-18T15:23:30.612Z,19.83
2023-02-18T15:25:58.135Z,19.29
2023-02-18T15:28:31.493Z,19.76
2023-02-18T15:31:03.786Z,18.72
2023-02-18T15:33:30.629Z,18.17
2023-02-18T15:36:05.951Z,18.40
2023-02-18T15:38:33.075Z,19.35
2023-02-18T15:41:00.896Z,19.35
2023-02-18T15:43:27.548Z,18.60
2023-02-18T15:45:58.833Z,18.81
2023-02-18T15:48:46.690Z,18.43
2023-02-18T15:51:18.138Z,18.46
2023-02-18T15:53:52.387Z,18.30
2023-02-18T15:56:31.016Z,18.33
2023-02-18T15:59:24.361Z,18.01
2023-02-18T16:01:53.802Z,18.20
2023-02-18T16:04:22.672Z,18.52
2023-02-18T16:06:54.640Z,18.61
2023-02-18T16:09:31.788Z,19.03
2023-02-18T16:12:02.181Z,18.50
2023-02-18T16:14:34.172Z,17.82
2023-02-18T16:17:12.770Z,18.19
2023-02-18T16:20:03.363Z,17.98
2023-02-18T16:22:31.175Z,17.80
2023-02-18T16:25:14.696Z,18.05
2023-02-18T16:27:52.629Z,18.73
2023-02-18T16:30:28.893Z,18.26
2023-02-18T16:32:57.898Z,18.30
2023-02-18T16:35:27.809Z,18.31
2023-02-18T16:37:57.625Z,17.69
2023-02-18T16:40:26.628Z,18.64
2023-02-18T16:42:54.504Z,18.63
2023-02-18T16:45:26.772Z,18.51
2023-02-18T16:47:53.461Z,18.15
2023-02-18T16:50:21.893Z,18.87
2023-02-18T16:52:49.347Z,18.63
2023-02-18T16:55:21.799Z,18.38
2023-02-18T16:57:48.517Z,18.47
2023-02-18T17:00:17.917Z,18.44
2023-02-18T17:02:48.230Z,17.98
2023-02-18T17:05:27.883Z,18.00
2023-02-18T17:07:55.736Z,18.20
2023-02-18T17:10:22.409Z,18.41
2023-02-18T17:12:48.957Z,18.56
2023-02-18T17:15:29.407Z,18.75
2023-02-18T17:17:59.105Z,18.78
2023-02-18T17:20:32.181Z,18.86
2023-02-18T17:22:59.638Z,18.92
2023-02-18T17:25:33.469Z,18.96
2023-02-18T17:28:00.735Z,18.72
2023-02-18T17:30:29.197Z,18.70
2023-02-18T17:32:55.826Z,18.67
2023-02-18T17:35:23.861Z,18.95
2023-02-18T17:37:50.547Z,18.31
2023-02-18T17:40:25.891Z,18.14
2023-02-18T17:42:54.699Z,18.21
2023-02-18T17:45:39.977Z,18.46
2023-02-18T17:48:06.548Z,17.79
2023-02-18T17:50:33.200Z,17.93
2023-02-18T17:52:59.821Z,18.02
2023-02-18T17:55:29.655Z,17.88
2023-02-18T17:57:56.941Z,17.85
2023-02-18T18:00:26.917Z,18.39
2023-02-18T18:02:53.843Z,17.91
2023-02-18T18:05:23.839Z,18.55
2023-02-18T18:07:51.746Z,19.00
2023-02-18T18:10:21.937Z,18.73
2023-02-18T18:12:49.796Z,18.01
2023-02-18T18:15:29.286Z,18.47
2023-02-18T18:17:57.447Z,18.39
2023-02-18T18:20:26.651Z,18.49
2023-02-18T18:22:55.160Z,18.98
2023-02-18T18:25:26.084Z,18.71
2023-02-18T18:27:53.716Z,18.46
2023-02-18T18:30:23.357Z,18.23
2023-02-18T18:32:50.421Z,18.54
2023-02-18T18:35:29.572Z,18.58
2023-02-18T18:37:56.791Z,18.48
2023-02-18T18:40:26.856Z,17.87
2023-02-18T18:42:56.241Z,18.56
2023-02-18T18:45:28.419Z,18.44
2023-02-18T18:47:55.306Z,17.92
2023-02-18T18:50:23.178Z,17.84
2023-02-18T18:52:50.837Z,18.26
2023-02-18T18:55:25.595Z,18.63
2023-02-18T18:57:52.626Z,17.69
2023-02-18T19:00:26.206Z,18.24
2023-02-18T19:02:52.779Z,18.29
2023-02-18T19:05:34.684Z,17.78
2023-02-18T19:08:02.493Z,17.89
2023-02-18T19:10:35.564Z,18.01
2023-02-18T19:13:04.515Z,17.95
2023-02-18T19:15:31.439Z,18.06
2023-02-18T19:17:58.018Z,18.26
2023-02-18T19:20:28.663Z,18.13
2023-02-18T19:22:55.283Z,18.28
2023-02-18T19:25:22.315Z,18.01
2023-02-18T19:27:50.825Z,18.26
2023-02-18T19:30:23.779Z,18.04
2023-02-18T19:32:52.431Z,18.37
2023-02-18T19:35:19.335Z,18.25
2023-02-18T19:37:46.118Z,17.53
2023-02-18T19:40:16.312Z,17.61
2023-02-18T19:42:42.920Z,17.52
2023-02-18T19:45:09.976Z,17.58
2023-02-18T19:47:36.851Z,17.79
2023-02-18T19:50:04.972Z,17.76
2023-02-18T19:52:31.648Z,18.01
2023-02-18T19:54:58.179Z,17.52
2023-02-18T19:57:25.273Z,18.01
2023-02-18T19:59:51.918Z,17.79
2023-02-18T20:02:23.957Z,18.25
2023-02-18T20:04:50.747Z,18.31
2023-02-18T20:07:19.896Z,17.99
2023-02-18T20:09:46.451Z,18.24
2023-02-18T20:12:13.348Z,18.23
2023-02-18T20:14:40.562Z,18.32
2023-02-18T20:17:07.151Z,17.99
2023-02-18T20:19:34.701Z,18.34
2023-02-18T20:22:02.113Z,18.33
2023-02-18T20:24:30.736Z,17.53
2023-02-18T20:26:58.270Z,18.08
2023-02-18T20:29:25.678Z,17.85
2023-02-18T20:31:53.923Z,17.89
2023-02-18T20:34:20.640Z,18.22
2023-02-18T20:36:49.696Z,17.70
2023-02-18T20:39:17.747Z,17.95
2023-02-18T20:41:45.332Z,18.13
2023-02-18T20:44:12.599Z,18.25
2023-02-18T20:46:39.915Z,18.01
2023-02-18T20:49:08.508Z,17.89
2023-02-18T20:51:35.539Z,17.42
2023-02-18T20:54:09.745Z,17.97
2023-02-18T20:56:37.807Z,18.29
2023-02-18T20:59:05.723Z,18.29
2023-02-18T21:01:32.636Z,18.33
2023-02-18T21:03:59.373Z,18.47
2023-02-18T21:06:26.051Z,18.05
2023-02-18T21:08:54.124Z,17.46
2023-02-18T21:11:23.479Z,17.78
2023-02-18T21:13:51.419Z,17.62
2023-02-18T21:16:19.208Z,17.66
2023-02-18T21:18:46.404Z,17.99
2023-02-18T21:21:13.386Z,17.27
2023-02-18T21:23:40.975Z,17.85
2023-02-18T21:26:09.963Z,17.80
2023-02-18T21:28:37.679Z,17.99
2023-02-18T21:31:05.062Z,17.89
2023-02-18T21:33:31.606Z,17.99
2023-02-18T21:36:01.256Z,18.19
2023-02-18T21:38:27.776Z,17.79
2023-02-18T21:40:54.300Z,18.24
2023-02-18T21:43:20.828Z,17.48
2023-02-18T21:45:47.361Z,18.00
2023-02-18T21:48:32.484Z,17.66
2023-02-18T21:51:02.299Z,18.13
2023-02-18T21:53:28.894Z,18.31
2023-02-18T21:56:03.667Z,17.84
2023-02-18T21:58:30.475Z,18.14
2023-02-18T22:00:58.205Z,17.72
2023-02-18T22:03:24.916Z,17.10
2023-02-18T22:05:51.510Z,17.93
2023-02-18T22:08:18.157Z,17.62
2023-02-18T22:10:44.697Z,17.53
2023-02-18T22:13:11.336Z,18.21
2023-02-18T22:15:39.213Z,18.09
2023-02-18T22:18:07.615Z,17.58
2023-02-18T22:20:34.177Z,17.34
2023-02-18T22:23:00.733Z,17.49
2023-02-18T22:25:27.301Z,17.22
2023-02-18T22:27:53.860Z,17.72
2023-02-18T22:30:20.549Z,17.91
2023-02-18T22:32:47.103Z,18.09
2023-02-18T22:35:15.616Z,17.88
2023-02-18T22:37:43.187Z,17.28
2023-02-18T22:40:10.117Z,17.81
2023-02-18T22:42:36.670Z,17.49
2023-02-18T22:45:03.796Z,17.78
2023-02-18T22:47:30.500Z,17.38
2023-02-18T22:49:57.058Z,17.46
2023-02-18T22:52:23.625Z,18.17
2023-02-18T22:54:50.145Z,17.70
2023-02-18T22:57:16.671Z,17.15
2023-02-18T22:59:43.205Z,17.82
2023-02-18T23:02:10.317Z,17.77
2023-02-18T23:04:39.512Z,17.70
2023-02-18T23:07:06.108Z,17.53
2023-02-18T23:09:32.788Z,17.66
2023-02-18T23:11:59.474Z,17.81
2023-02-18T23:14:28.071Z,18.10
2023-02-18T23:17:15.155Z,17.30
2023-02-18T23:19:45.927Z,17.70
2023-02-18T23:22:14.865Z,17.96
2023-02-18T23:24:44.093Z,17.82
2023-02-18T23:27:13.747Z,17.35
2023-02-18T23:29:40.380Z,17.30
2023-02-18T23:32:07.154Z,17.60
2023-02-18T23:34:33.890Z,17.73
2023-02-18T23:37:00.665Z,17.91
2023-02-18T23:39:27.826Z,18.18
2023-02-18T23:41:54.431Z,17.89
2023-02-18T23:44:23.225Z,17.56
2023-02-18T23:46:51.349Z,17.30
2023-02-18T23:49:22.030Z,17.59
2023-02-18T23:51:50.172Z,17.71
2023-02-18T23:54:16.760Z,17.33
2023-02-18T23:56:43.849Z,17.29
2023-02-18T23:59:11.477Z,17.44
